Time;durP1;ratioP1;P1;durP2;ratioP2;P2;SDS_P1;SDS_P2;PMS_P1;PMS_P2;Temp;Humidity;BMP_temperature;BMP_pressure;BME280_temperature;BME280_humidity;BME280_pressure;Samples;Min_cycle;Max_cycle;Signal;HPM_P1;HPM_P2
2023/05/18 00:01:16;;;;;;;10.82;4.10;;;;;;;;;;4993793;28;20149;-76
2023/05/18 00:03:42;;;;;;;11.35;4.15;;;;;;;;;;4995718;28;20038;-75
2023/05/18 00:06:08;;;;;;;9.20;4.05;;;;;;;;;;4994077;28;20417;-75
2023/05/18 00:08:34;;;;;;;11.82;4.22;;;;;;;;;;4995107;28;20038;-75
2023/05/18 00:11:00;;;;;;;9.18;3.90;;;;;;;;;;4994797;28;20038;-75
2023/05/18 00:13:26;;;;;;;9.13;3.92;;;;;;;;;;4994132;28;20082;-75
2023/05/18 00:15:51;;;;;;;11.90;3.70;;;;;;;;;;4995007;28;20508;-75
2023/05/18 00:18:17;;;;;;;10.68;4.18;;;;;;;;;;4994878;28;20042;-75
2023/05/18 00:20:42;;;;;;;16.05;4.28;;;;;;;;;;4993973;28;20038;-75
2023/05/18 00:23:09;;;;;;;7.03;4.03;;;;;;;;;;4994740;28;20058;-75
2023/05/18 00:25:35;;;;;;;16.95;3.75;;;;;;;;;;4993608;28;20141;-75
2023/05/18 00:28:00;;;;;;;11.68;4.22;;;;;;;;;;4994505;28;20054;-75
2023/05/18 00:30:26;;;;;;;12.00;4.18;;;;;;;;;;4993206;28;20073;-75
2023/05/18 00:32:51;;;;;;;10.02;4.22;;;;;;;;;;4995046;28;20411;-75
2023/05/18 00:35:16;;;;;;;9.63;4.18;;;;;;;;;;4994638;28;20042;-75
2023/05/18 00:37:42;;;;;;;9.00;4.18;;;;;;;;;;4994979;28;20096;-75
2023/05/18 00:40:08;;;;;;;8.52;3.95;;;;;;;;;;4988711;28;20039;-75
2023/05/18 00:42:33;;;;;;;7.95;4.00;;;;;;;;;;4990900;28;20039;-75
2023/05/18 00:44:59;;;;;;;9.27;4.10;;;;;;;;;;4994371;28;20045;-75
2023/05/18 00:47:24;;;;;;;12.05;3.72;;;;;;;;;;4994255;28;20479;-75
2023/05/18 00:49:50;;;;;;;9.35;3.80;;;;;;;;;;4993024;28;20395;-75
2023/05/18 00:52:16;;;;;;;16.10;4.10;;;;;;;;;;4994573;28;20069;-75
2023/05/18 00:54:42;;;;;;;12.98;4.00;;;;;;;;;;4994536;28;20047;-75
2023/05/18 00:57:07;;;;;;;7.70;3.53;;;;;;;;;;4993108;28;20042;-75
2023/05/18 00:59:33;;;;;;;8.35;3.75;;;;;;;;;;4992851;28;20038;-75
2023/05/18 01:02:00;;;;;;;7.65;4.55;;;;;;;;;;4994279;28;20126;-75
2023/05/18 01:04:26;;;;;;;7.05;3.85;;;;;;;;;;4992603;28;20085;-75
2023/05/18 01:06:55;;;;;;;9.38;3.85;;;;;;;;;;4994356;28;20427;-75
2023/05/18 01:09:21;;;;;;;11.57;3.70;;;;;;;;;;4992887;28;20041;-76
2023/05/18 01:12:06;;;;;;;7.65;3.60;;;;;;;;;;4992623;28;20483;-75
2023/05/18 01:14:36;;;;;;;6.35;3.72;;;;;;;;;;4992816;28;20053;-75
2023/05/18 01:17:11;;;;;;;7.45;3.45;;;;;;;;;;4992796;28;20042;-75
2023/05/18 01:19:59;;;;;;;7.80;3.63;;;;;;;;;;4993512;28;20109;-75
2023/05/18 01:22:31;;;;;;;11.52;3.42;;;;;;;;;;4992613;28;20390;-75
2023/05/18 01:25:05;;;;;;;9.60;3.78;;;;;;;;;;4993827;28;20046;-75
2023/05/18 01:27:36;;;;;;;9.15;3.50;;;;;;;;;;4992806;28;20046;-75
2023/05/18 01:30:03;;;;;;;12.38;3.92;;;;;;;;;;4993160;28;20049;-75
2023/05/18 01:32:29;;;;;;;10.55;3.97;;;;;;;;;;4992980;28;20049;-75
2023/05/18 01:34:55;;;;;;;7.40;3.78;;;;;;;;;;4992410;28;20101;-75
2023/05/18 01:37:20;;;;;;;9.52;3.88;;;;;;;;;;4990983;28;20463;-75
2023/05/18 01:39:46;;;;;;;10.75;4.15;;;;;;;;;;4993743;28;20097;-75
2023/05/18 01:42:16;;;;;;;13.82;4.00;;;;;;;;;;4991174;28;20039;-75
2023/05/18 01:44:57;;;;;;;9.30;4.15;;;;;;;;;;5020170;28;20126;-75
2023/05/18 01:47:24;;;;;;;10.02;3.70;;;;;;;;;;4985367;28;20093;-75
2023/05/18 01:49:55;;;;;;;6.45;3.67;;;;;;;;;;4993488;28;20117;-75
2023/05/18 01:52:32;;;;;;;6.82;3.50;;;;;;;;;;4986345;28;20041;-75
2023/05/18 01:55:00;;;;;;;7.53;3.83;;;;;;;;;;4992307;28;20030;-75
2023/05/18 01:57:27;;;;;;;14.40;4.35;;;;;;;;;;4991976;28;20089;-75
2023/05/18 01:59:53;;;;;;;8.43;3.55;;;;;;;;;;4972593;28;20038;-75
2023/05/18 02:02:18;;;;;;;6.22;3.58;;;;;;;;;;4987600;28;20495;-75
2023/05/18 02:04:44;;;;;;;11.25;4.00;;;;;;;;;;4993572;28;20077;-75
2023/05/18 02:07:09;;;;;;;10.30;3.83;;;;;;;;;;4992320;28;20113;-75
2023/05/18 02:09:35;;;;;;;7.90;3.33;;;;;;;;;;4993475;28;20043;-75
2023/05/18 02:12:01;;;;;;;7.28;4.10;;;;;;;;;;4983584;28;20074;-75
2023/05/18 02:14:26;;;;;;;13.35;4.13;;;;;;;;;;4991969;28;20463;-75
2023/05/18 02:16:52;;;;;;;10.70;4.28;;;;;;;;;;4986714;28;20081;-75
2023/05/18 02:19:18;;;;;;;15.50;4.32;;;;;;;;;;4993304;28;20046;-75
2023/05/18 02:21:44;;;;;;;12.57;4.30;;;;;;;;;;4992336;28;20042;-75
2023/05/18 02:24:11;;;;;;;9.10;3.72;;;;;;;;;;4992216;28;20038;-75
2023/05/18 02:26:36;;;;;;;10.35;3.78;;;;;;;;;;4991935;28;20117;-76
2023/05/18 02:29:05;;;;;;;8.63;3.90;;;;;;;;;;4993456;28;20117;-76
2023/05/18 02:31:30;;;;;;;9.38;3.50;;;;;;;;;;4996534;28;20054;-75
2023/05/18 02:33:55;;;;;;;8.73;3.92;;;;;;;;;;4996180;28;20039;-76
2023/05/18 02:36:21;;;;;;;6.65;3.92;;;;;;;;;;4995100;28;20478;-75
2023/05/18 02:38:47;;;;;;;8.85;3.90;;;;;;;;;;4997014;28;20049;-75
2023/05/18 02:41:13;;;;;;;10.25;3.75;;;;;;;;;;4994492;28;20038;-75
2023/05/18 02:43:39;;;;;;;10.40;3.47;;;;;;;;;;4996203;28;20089;-75
2023/05/18 02:46:05;;;;;;;7.35;4.10;;;;;;;;;;4996532;28;20054;-75
2023/05/18 02:48:30;;;;;;;8.25;3.90;;;;;;;;;;4995340;28;20114;-75
2023/05/18 02:50:55;;;;;;;12.27;4.22;;;;;;;;;;4996487;28;20462;-75
2023/05/18 02:53:21;;;;;;;8.63;3.50;;;;;;;;;;4996478;28;20066;-75
2023/05/18 02:55:47;;;;;;;16.77;4.28;;;;;;;;;;4993885;28;20042;-75
2023/05/18 02:58:13;;;;;;;10.35;4.07;;;;;;;;;;4992147;28;20050;-75
2023/05/18 03:00:39;;;;;;;10.68;3.95;;;;;;;;;;4996348;28;20395;-75
2023/05/18 03:03:04;;;;;;;9.95;4.10;;;;;;;;;;4996461;28;20126;-75
2023/05/18 03:05:29;;;;;;;7.18;3.90;;;;;;;;;;4996346;28;20100;-75
2023/05/18 03:07:55;;;;;;;8.43;3.80;;;;;;;;;;4996564;28;20501;-75
2023/05/18 03:10:21;;;;;;;11.15;4.50;;;;;;;;;;4991378;28;20462;-75
2023/05/18 03:12:47;;;;;;;9.43;3.45;;;;;;;;;;4996269;28;20046;-75
2023/05/18 03:15:15;;;;;;;12.38;3.80;;;;;;;;;;4996174;28;20045;-75
2023/05/18 03:17:43;;;;;;;9.48;4.05;;;;;;;;;;4995263;28;20081;-75
2023/05/18 03:20:10;;;;;;;12.20;4.50;;;;;;;;;;4995988;28;20042;-75
2023/05/18 03:22:36;;;;;;;14.55;4.72;;;;;;;;;;4995131;28;20044;-75
2023/05/18 03:25:03;;;;;;;11.30;4.25;;;;;;;;;;4995707;28;20046;-75
2023/05/18 03:27:28;;;;;;;6.78;3.70;;;;;;;;;;4996127;28;20113;-75
2023/05/18 03:29:56;;;;;;;10.80;3.65;;;;;;;;;;4995748;28;20124;-75
2023/05/18 03:32:21;;;;;;;10.15;4.13;;;;;;;;;;4995955;28;20486;-75
2023/05/18 03:34:47;;;;;;;12.38;4.07;;;;;;;;;;4995889;28;20041;-75
2023/05/18 03:37:13;;;;;;;8.00;3.75;;;;;;;;;;4994837;28;20034;-75
2023/05/18 03:39:39;;;;;;;9.25;3.47;;;;;;;;;;4993651;28;20557;-75
2023/05/18 03:42:05;;;;;;;10.35;3.75;;;;;;;;;;4995739;28;20060;-75
2023/05/18 03:44:30;;;;;;;8.63;3.45;;;;;;;;;;4995717;28;20537;-75
2023/05/18 03:46:56;;;;;;;6.05;3.50;;;;;;;;;;4994290;28;20382;-75
2023/05/18 03:49:21;;;;;;;7.40;3.35;;;;;;;;;;4995512;28;20038;-75
2023/05/18 03:51:46;;;;;;;7.25;3.80;;;;;;;;;;4995384;28;20088;-75
2023/05/18 03:54:12;;;;;;;6.93;3.67;;;;;;;;;;4994169;28;20034;-75
2023/05/18 03:56:37;;;;;;;8.35;3.45;;;;;;;;;;4995723;28;20064;-75
2023/05/18 03:59:03;;;;;;;5.95;3.30;;;;;;;;;;4995626;28;20066;-75
2023/05/18 04:01:31;;;;;;;7.95;3.22;;;;;;;;;;4994967;28;20466;-75
2023/05/18 04:03:57;;;;;;;11.07;3.20;;;;;;;;;;4995372;28;20478;-75
2023/05/18 04:06:22;;;;;;;4.60;2.72;;;;;;;;;;4993953;28;20038;-75
2023/05/18 04:08:48;;;;;;;7.38;3.60;;;;;;;;;;4995366;28;20049;-75
2023/05/18 04:11:14;;;;;;;8.25;3.50;;;;;;;;;;4991332;28;20034;-75
2023/05/18 04:13:40;;;;;;;6.70;3.75;;;;;;;;;;4992799;28;20398;-75
2023/05/18 04:16:06;;;;;;;9.18;3.88;;;;;;;;;;4994808;28;20393;-75
2023/05/18 04:18:31;;;;;;;5.60;3.58;;;;;;;;;;4995002;28;20110;-75
2023/05/18 04:20:57;;;;;;;8.60;3.70;;;;;;;;;;4994921;28;20049;-75
2023/05/18 04:23:22;;;;;;;10.32;4.20;;;;;;;;;;4995034;28;20553;-75
2023/05/18 04:25:48;;;;;;;4.90;3.20;;;;;;;;;;4993771;28;20371;-75
2023/05/18 04:28:14;;;;;;;11.55;3.80;;;;;;;;;;4995310;28;20082;-75
2023/05/18 04:30:39;;;;;;;9.90;3.78;;;;;;;;;;4994726;28;20092;-75
2023/05/18 04:33:05;;;;;;;7.97;3.40;;;;;;;;;;4994929;28;20410;-75
2023/05/18 04:35:31;;;;;;;8.15;3.85;;;;;;;;;;4994552;28;20089;-75
2023/05/18 04:37:56;;;;;;;7.50;3.28;;;;;;;;;;4993897;28;20398;-75
2023/05/18 04:40:24;;;;;;;6.75;3.40;;;;;;;;;;4994311;28;20034;-75
2023/05/18 04:42:50;;;;;;;7.72;3.90;;;;;;;;;;4992866;28;20053;-75
2023/05/18 04:45:18;;;;;;;9.70;3.90;;;;;;;;;;4993484;28;20391;-75
2023/05/18 04:47:45;;;;;;;6.38;3.72;;;;;;;;;;4994000;28;20483;-75
2023/05/18 04:50:14;;;;;;;9.05;3.55;;;;;;;;;;4993336;28;20129;-75
2023/05/18 04:52:47;;;;;;;6.93;3.90;;;;;;;;;;4993768;28;20483;-75
2023/05/18 04:55:26;;;;;;;10.98;3.75;;;;;;;;;;4993318;28;20065;-75
2023/05/18 04:57:55;;;;;;;10.77;3.78;;;;;;;;;;4992621;28;20478;-75
2023/05/18 05:00:22;;;;;;;6.40;3.70;;;;;;;;;;4992957;28;20042;-75
2023/05/18 05:02:48;;;;;;;11.80;3.83;;;;;;;;;;4994397;28;20046;-75
2023/05/18 05:05:13;;;;;;;6.95;3.50;;;;;;;;;;4994366;28;20144;-75
2023/05/18 05:07:39;;;;;;;6.35;3.60;;;;;;;;;;4992375;28;20053;-75
2023/05/18 05:10:05;;;;;;;7.70;3.70;;;;;;;;;;4994247;28;20919;-75
2023/05/18 05:12:30;;;;;;;11.05;3.85;;;;;;;;;;4993911;28;20042;-76
2023/05/18 05:14:56;;;;;;;5.07;2.97;;;;;;;;;;4994256;28;20081;-75
2023/05/18 05:17:21;;;;;;;7.65;3.40;;;;;;;;;;4993862;28;20034;-75
2023/05/18 05:19:47;;;;;;;8.93;3.42;;;;;;;;;;4994382;28;20483;-75
2023/05/18 05:22:13;;;;;;;8.98;3.55;;;;;;;;;;4994064;28;20045;-75
2023/05/18 05:24:38;;;;;;;10.38;3.40;;;;;;;;;;4993726;28;20161;-75
2023/05/18 05:27:04;;;;;;;9.05;3.67;;;;;;;;;;4994176;28;20487;-75
2023/05/18 05:29:29;;;;;;;9.93;3.38;;;;;;;;;;4993750;28;20042;-75
2023/05/18 05:31:55;;;;;;;7.35;4.20;;;;;;;;;;4994048;28;20045;-75
2023/05/18 05:34:20;;;;;;;6.05;3.35;;;;;;;;;;4992875;28;20041;-76
2023/05/18 05:36:45;;;;;;;6.45;3.28;;;;;;;;;;4994106;28;20030;-75
2023/05/18 05:39:12;;;;;;;7.05;3.78;;;;;;;;;;4992726;28;20088;-75
2023/05/18 05:41:38;;;;;;;6.93;3.47;;;;;;;;;;4993605;28;20046;-76
2023/05/18 05:44:03;;;;;;;7.53;3.55;;;;;;;;;;4992839;28;20168;-75
2023/05/18 05:46:29;;;;;;;5.75;2.88;;;;;;;;;;4993463;28;20121;-75
2023/05/18 05:48:54;;;;;;;6.97;3.35;;;;;;;;;;4992253;28;20042;-75
2023/05/18 05:51:20;;;;;;;4.50;2.97;;;;;;;;;;4993315;28;20046;-75
2023/05/18 05:53:46;;;;;;;7.80;3.47;;;;;;;;;;4993124;28;20034;-76
2023/05/18 05:56:12;;;;;;;8.07;3.38;;;;;;;;;;4993589;28;20117;-76
2023/05/18 05:58:37;;;;;;;5.00;3.10;;;;;;;;;;4993129;28;20125;-75
2023/05/18 06:01:03;;;;;;;4.60;2.88;;;;;;;;;;4992982;28;20038;-75
2023/05/18 06:03:30;;;;;;;6.35;3.03;;;;;;;;;;4993598;28;20045;-75
2023/05/18 06:05:56;;;;;;;5.95;2.80;;;;;;;;;;4996273;28;20043;-76
2023/05/18 06:08:23;;;;;;;5.50;2.83;;;;;;;;;;4997735;28;20121;-76
2023/05/18 06:10:48;;;;;;;4.05;2.40;;;;;;;;;;4997426;28;20061;-76
2023/05/18 06:13:14;;;;;;;4.95;2.65;;;;;;;;;;4992275;28;20046;-76
2023/05/18 06:15:39;;;;;;;5.45;2.75;;;;;;;;;;4996145;28;20046;-76
2023/05/18 06:18:05;;;;;;;5.15;2.80;;;;;;;;;;4997350;28;20038;-76
2023/05/18 06:20:30;;;;;;;5.65;2.85;;;;;;;;;;4997138;28;20042;-76
2023/05/18 06:22:56;;;;;;;6.70;2.97;;;;;;;;;;4995952;28;20042;-76
2023/05/18 06:25:21;;;;;;;5.05;2.72;;;;;;;;;;4997077;28;20426;-76
2023/05/18 06:27:47;;;;;;;5.45;2.88;;;;;;;;;;4996916;28;20085;-75
2023/05/18 06:30:13;;;;;;;4.30;2.63;;;;;;;;;;4996506;28;20117;-75
2023/05/18 06:32:38;;;;;;;4.68;2.47;;;;;;;;;;4996068;28;20035;-76
2023/05/18 06:35:05;;;;;;;4.10;2.22;;;;;;;;;;4995764;28;20046;-76
2023/05/18 06:37:30;;;;;;;5.90;2.60;;;;;;;;;;4995576;28;20049;-76
2023/05/18 06:39:56;;;;;;;4.85;2.67;;;;;;;;;;4993672;28;20035;-75
2023/05/18 06:42:22;;;;;;;4.53;2.50;;;;;;;;;;4994754;28;20375;-75
2023/05/18 06:44:49;;;;;;;7.95;2.47;;;;;;;;;;4995984;28;20041;-76
2023/05/18 06:47:15;;;;;;;6.45;2.55;;;;;;;;;;4996816;28;20034;-76
2023/05/18 06:49:40;;;;;;;5.15;2.60;;;;;;;;;;4996420;28;20047;-76
2023/05/18 06:52:07;;;;;;;7.22;2.63;;;;;;;;;;4996947;28;20068;-75
2023/05/18 06:54:33;;;;;;;4.00;2.35;;;;;;;;;;4996441;28;20509;-76
2023/05/18 06:56:58;;;;;;;6.75;2.40;;;;;;;;;;4996437;28;20034;-76
2023/05/18 06:59:23;;;;;;;5.63;2.63;;;;;;;;;;4995427;28;20046;-76
2023/05/18 07:01:49;;;;;;;5.50;2.65;;;;;;;;;;4995408;28;20054;-76
2023/05/18 07:04:15;;;;;;;4.22;2.50;;;;;;;;;;4994257;28;20034;-76
2023/05/18 07:06:40;;;;;;;3.92;2.22;;;;;;;;;;4995063;28;20482;-76
2023/05/18 07:09:07;;;;;;;5.93;2.67;;;;;;;;;;4995771;28;20073;-76
2023/05/18 07:11:33;;;;;;;4.60;2.63;;;;;;;;;;4995279;28;20046;-76
2023/05/18 07:13:58;;;;;;;6.35;2.90;;;;;;;;;;4994776;28;20038;-76
2023/05/18 07:16:26;;;;;;;5.25;2.70;;;;;;;;;;4993305;28;20046;-77
2023/05/18 07:18:51;;;;;;;6.45;2.58;;;;;;;;;;4994822;28;20042;-77
2023/05/18 07:21:17;;;;;;;7.22;2.47;;;;;;;;;;4995222;28;20038;-77
2023/05/18 07:23:42;;;;;;;9.25;2.78;;;;;;;;;;4996967;28;20026;-74
2023/05/18 07:26:10;;;;;;;6.55;2.72;;;;;;;;;;4992210;28;20034;-76
2023/05/18 07:28:36;;;;;;;4.78;2.92;;;;;;;;;;4992248;28;20034;-77
2023/05/18 07:31:02;;;;;;;4.10;2.60;;;;;;;;;;4998134;28;20458;-75
2023/05/18 07:33:27;;;;;;;7.40;2.47;;;;;;;;;;4992381;28;20172;-77
2023/05/18 07:35:53;;;;;;;7.35;2.80;;;;;;;;;;4993581;28;20490;-77
2023/05/18 07:38:18;;;;;;;5.13;2.85;;;;;;;;;;4994787;28;20030;-77
2023/05/18 07:40:43;;;;;;;5.70;2.45;;;;;;;;;;4992527;28;20045;-77
2023/05/18 07:43:09;;;;;;;5.47;2.70;;;;;;;;;;4994814;28;20498;-77
2023/05/18 07:45:34;;;;;;;4.90;2.80;;;;;;;;;;4992762;28;20109;-77
2023/05/18 07:48:00;;;;;;;5.78;3.13;;;;;;;;;;5008501;28;20077;-76
2023/05/18 07:50:28;;;;;;;5.25;2.63;;;;;;;;;;4983701;28;20121;-77
2023/05/18 07:52:54;;;;;;;5.18;2.47;;;;;;;;;;4988155;28;20034;-77
2023/05/18 07:55:19;;;;;;;4.93;2.75;;;;;;;;;;4991636;28;20061;-77
2023/05/18 07:57:44;;;;;;;5.32;2.60;;;;;;;;;;4950443;28;1169487;-77
2023/05/18 08:00:11;;;;;;;5.85;2.53;;;;;;;;;;4991704;28;20398;-77
2023/05/18 08:02:36;;;;;;;5.60;3.03;;;;;;;;;;4982380;28;20030;-77
2023/05/18 08:05:02;;;;;;;5.38;2.30;;;;;;;;;;4991405;28;20478;-76
2023/05/18 08:07:28;;;;;;;5.38;2.78;;;;;;;;;;4991983;28;20034;-77
2023/05/18 08:09:54;;;;;;;9.80;3.00;;;;;;;;;;4990228;28;20057;-77
2023/05/18 08:12:20;;;;;;;5.63;2.80;;;;;;;;;;4988736;28;20390;-76
2023/05/18 08:14:45;;;;;;;5.45;2.78;;;;;;;;;;4988259;28;20045;-77
2023/05/18 08:17:10;;;;;;;7.00;3.40;;;;;;;;;;4989356;28;20038;-77
2023/05/18 08:19:36;;;;;;;6.53;2.90;;;;;;;;;;4991233;28;20031;-77
2023/05/18 08:22:02;;;;;;;5.88;3.47;;;;;;;;;;4991047;28;20041;-77
2023/05/18 08:24:27;;;;;;;6.05;2.85;;;;;;;;;;4989047;28;20042;-77
2023/05/18 08:26:52;;;;;;;5.40;2.45;;;;;;;;;;4989708;28;20034;-77
2023/05/18 08:29:18;;;;;;;4.78;2.60;;;;;;;;;;4989733;28;20038;-78
2023/05/18 08:31:43;;;;;;;6.85;2.65;;;;;;;;;;4989114;28;20042;-78
2023/05/18 08:34:09;;;;;;;7.40;2.88;;;;;;;;;;4990726;28;20467;-78
2023/05/18 08:36:35;;;;;;;9.05;3.10;;;;;;;;;;4987467;28;20038;-78
2023/05/18 08:39:01;;;;;;;6.07;2.70;;;;;;;;;;4990386;28;20473;-78
2023/05/18 08:41:42;;;;;;;6.47;2.65;;;;;;;;;;4990837;28;20527;-77
2023/05/18 08:44:21;;;;;;;4.20;2.38;;;;;;;;;;4992967;28;20064;-78
2023/05/18 08:46:50;;;;;;;6.32;2.22;;;;;;;;;;4993024;28;20026;-78
2023/05/18 08:49:20;;;;;;;6.20;2.70;;;;;;;;;;4989574;28;20482;-78
2023/05/18 08:51:48;;;;;;;6.10;2.88;;;;;;;;;;4990944;28;20089;-77
2023/05/18 08:54:19;;;;;;;7.43;2.70;;;;;;;;;;4985972;28;20042;-76
2023/05/18 08:56:45;;;;;;;5.23;2.57;;;;;;;;;;4992543;28;20069;-76
2023/05/18 08:59:11;;;;;;;5.50;2.95;;;;;;;;;;4990716;28;20129;-76
2023/05/18 09:01:37;;;;;;;5.50;2.78;;;;;;;;;;5012715;28;20537;-78
2023/05/18 09:04:02;;;;;;;6.90;3.10;;;;;;;;;;4982477;28;20042;-78
2023/05/18 09:06:28;;;;;;;5.63;2.92;;;;;;;;;;4993799;28;20371;-78
2023/05/18 09:08:56;;;;;;;7.10;2.90;;;;;;;;;;4993421;28;20117;-78
2023/05/18 09:11:24;;;;;;;7.20;2.78;;;;;;;;;;4992634;28;20042;-78
2023/05/18 09:13:50;;;;;;;5.47;3.13;;;;;;;;;;4993695;28;20030;-78
2023/05/18 09:16:15;;;;;;;7.38;3.15;;;;;;;;;;4993783;28;20042;-78
2023/05/18 09:18:41;;;;;;;8.30;3.28;;;;;;;;;;4993232;28;20038;-79
2023/05/18 09:21:07;;;;;;;7.72;3.05;;;;;;;;;;4993718;28;20026;-78
2023/05/18 09:23:33;;;;;;;5.43;2.83;;;;;;;;;;4993516;28;20080;-79
2023/05/18 09:25:59;;;;;;;10.55;3.17;;;;;;;;;;4992328;28;20463;-78
2023/05/18 09:28:31;;;;;;;6.50;3.10;;;;;;;;;;4992191;28;20390;-79
2023/05/18 09:30:56;;;;;;;5.13;3.20;;;;;;;;;;4993519;28;20070;-76
2023/05/18 09:33:22;;;;;;;8.45;3.38;;;;;;;;;;4992039;28;20065;-76
2023/05/18 09:35:49;;;;;;;7.72;3.55;;;;;;;;;;4993706;28;20375;-76
2023/05/18 09:38:20;;;;;;;8.70;4.15;;;;;;;;;;4990489;28;20038;-78
2023/05/18 09:40:47;;;;;;;6.78;3.85;;;;;;;;;;4992185;28;20046;-79
2023/05/18 09:43:13;;;;;;;8.98;3.88;;;;;;;;;;4993178;28;20038;-78
2023/05/18 09:45:47;;;;;;;7.97;3.45;;;;;;;;;;4992027;28;20130;-79
2023/05/18 09:48:16;;;;;;;9.35;4.00;;;;;;;;;;4991823;28;20450;-79
2023/05/18 09:50:44;;;;;;;7.07;3.80;;;;;;;;;;4993348;28;20130;-79
2023/05/18 09:53:12;;;;;;;6.78;3.58;;;;;;;;;;4992101;28;20040;-79
2023/05/18 09:55:46;;;;;;;6.15;3.53;;;;;;;;;;4991855;28;20042;-79
2023/05/18 09:58:12;;;;;;;8.85;3.63;;;;;;;;;;4992540;28;20101;-79
2023/05/18 10:00:41;;;;;;;9.68;3.97;;;;;;;;;;4992541;28;20046;-79
2023/05/18 10:03:19;;;;;;;7.13;3.97;;;;;;;;;;4991722;28;20038;-79
2023/05/18 10:05:45;;;;;;;10.43;3.85;;;;;;;;;;4958331;28;20038;-79
2023/05/18 10:08:11;;;;;;;6.10;3.35;;;;;;;;;;4988513;28;20040;-79
2023/05/18 10:10:39;;;;;;;8.48;3.45;;;;;;;;;;4988418;28;20026;-79
2023/05/18 10:13:04;;;;;;;5.63;3.17;;;;;;;;;;4989419;28;20049;-79
2023/05/18 10:15:32;;;;;;;6.43;2.97;;;;;;;;;;4988980;28;20034;-79
2023/05/18 10:17:58;;;;;;;5.95;3.00;;;;;;;;;;4988702;28;20030;-79
2023/05/18 10:20:26;;;;;;;6.32;2.90;;;;;;;;;;4987071;28;20034;-78
2023/05/18 10:22:53;;;;;;;6.30;3.22;;;;;;;;;;4986144;28;20030;-79
2023/05/18 10:25:24;;;;;;;6.68;3.30;;;;;;;;;;4985540;28;20058;-78
2023/05/18 10:27:55;;;;;;;6.80;3.13;;;;;;;;;;4989543;28;20092;-78
2023/05/18 10:30:21;;;;;;;8.73;3.63;;;;;;;;;;4988243;28;20045;-77
2023/05/18 10:32:47;;;;;;;9.57;3.92;;;;;;;;;;4988631;28;20026;-78
2023/05/18 10:35:13;;;;;;;11.88;4.25;;;;;;;;;;4989013;28;20189;-78
2023/05/18 10:37:41;;;;;;;11.13;3.80;;;;;;;;;;4987694;28;20042;-79
2023/05/18 10:40:07;;;;;;;7.85;4.22;;;;;;;;;;4987777;28;20022;-78
2023/05/18 10:42:33;;;;;;;7.32;3.50;;;;;;;;;;4986192;28;20490;-78
2023/05/18 10:45:00;;;;;;;6.95;3.33;;;;;;;;;;4988858;28;20121;-77
2023/05/18 10:47:28;;;;;;;6.65;2.95;;;;;;;;;;4988259;28;20041;-78
2023/05/18 10:49:55;;;;;;;6.35;3.20;;;;;;;;;;4988184;28;20068;-77
2023/05/18 10:52:20;;;;;;;4.38;2.92;;;;;;;;;;4989743;28;20042;-78
2023/05/18 10:54:48;;;;;;;6.97;2.88;;;;;;;;;;4990832;28;20030;-78
2023/05/18 10:57:16;;;;;;;7.22;3.60;;;;;;;;;;4992608;28;20041;-78
2023/05/18 10:59:43;;;;;;;6.30;2.80;;;;;;;;;;4990325;28;20038;-77
2023/05/18 11:02:14;;;;;;;5.47;2.50;;;;;;;;;;4991691;28;20109;-77
2023/05/18 11:04:40;;;;;;;8.10;3.30;;;;;;;;;;4991350;28;20118;-78
2023/05/18 11:07:10;;;;;;;10.35;2.83;;;;;;;;;;4991056;28;20117;-77
2023/05/18 11:09:35;;;;;;;6.93;3.20;;;;;;;;;;4991569;28;20096;-77
2023/05/18 11:12:01;;;;;;;7.75;2.95;;;;;;;;;;4992623;28;20042;-77
2023/05/18 11:14:28;;;;;;;9.48;3.58;;;;;;;;;;4990861;28;20042;-78
2023/05/18 11:17:24;;;;;;;7.18;2.63;;;;;;;;;;4986744;28;20029;-77
2023/05/18 11:20:07;;;;;;;5.38;2.70;;;;;;;;;;4992622;28;20487;-77
2023/05/18 11:22:50;;;;;;;5.10;2.63;;;;;;;;;;4981962;28;20454;-77
2023/05/18 11:25:25;;;;;;;10.77;3.60;;;;;;;;;;4990429;28;20042;-77
2023/05/18 11:28:02;;;;;;;7.53;2.85;;;;;;;;;;4992787;28;20038;-77
2023/05/18 11:30:48;;;;;;;7.32;3.22;;;;;;;;;;4975064;28;20043;-76
2023/05/18 11:33:14;;;;;;;9.30;2.63;;;;;;;;;;4986139;28;20038;-77
2023/05/18 11:36:10;;;;;;;5.60;3.10;;;;;;;;;;4991518;28;20038;-77
2023/05/18 11:38:53;;;;;;;8.88;3.33;;;;;;;;;;4989826;28;20026;-76
2023/05/18 11:41:35;;;;;;;8.43;3.00;;;;;;;;;;4991842;28;20052;-77
2023/05/18 11:44:10;;;;;;;5.28;2.85;;;;;;;;;;4992102;28;20073;-77
2023/05/18 11:46:36;;;;;;;6.43;2.75;;;;;;;;;;4992268;28;20038;-76
2023/05/18 11:49:08;;;;;;;6.70;2.90;;;;;;;;;;4988790;28;20475;-76
2023/05/18 11:51:54;;;;;;;8.52;3.15;;;;;;;;;;4990958;28;20034;-76
2023/05/18 11:54:22;;;;;;;7.60;3.20;;;;;;;;;;4983945;28;20034;-77
2023/05/18 11:56:50;;;;;;;10.60;3.63;;;;;;;;;;4988319;28;20150;-76
2023/05/18 11:59:15;;;;;;;6.88;3.10;;;;;;;;;;4989050;28;20045;-75
2023/05/18 12:01:42;;;;;;;5.20;2.92;;;;;;;;;;4973695;28;20046;-76
2023/05/18 12:04:07;;;;;;;5.57;3.08;;;;;;;;;;4989194;28;20038;-76
2023/05/18 12:06:33;;;;;;;6.70;3.03;;;;;;;;;;4990235;28;20485;-76
2023/05/18 12:08:58;;;;;;;7.93;3.05;;;;;;;;;;4989816;28;20050;-77
2023/05/18 12:11:25;;;;;;;5.95;2.75;;;;;;;;;;4990352;28;20054;-76
2023/05/18 12:13:51;;;;;;;6.25;2.72;;;;;;;;;;4991640;28;20038;-76
2023/05/18 12:16:17;;;;;;;6.00;3.40;;;;;;;;;;4989996;28;20085;-77
2023/05/18 12:18:49;;;;;;;5.82;3.17;;;;;;;;;;4989830;28;20141;-76
2023/05/18 12:21:23;;;;;;;7.32;3.15;;;;;;;;;;4973769;28;20109;-77
2023/05/18 12:23:56;;;;;;;5.03;2.38;;;;;;;;;;4984989;28;20042;-77
2023/05/18 12:26:24;;;;;;;7.18;3.00;;;;;;;;;;4987261;28;20141;-77
2023/05/18 12:28:51;;;;;;;5.30;2.53;;;;;;;;;;4989800;28;20766;-76
2023/05/18 12:31:16;;;;;;;6.47;2.83;;;;;;;;;;4987309;28;20486;-77
2023/05/18 12:33:42;;;;;;;6.88;2.53;;;;;;;;;;4990589;28;20049;-76
2023/05/18 12:36:12;;;;;;;8.20;3.13;;;;;;;;;;4991275;28;20043;-76
2023/05/18 12:38:37;;;;;;;10.10;3.28;;;;;;;;;;4989528;28;20474;-76
2023/05/18 12:41:03;;;;;;;7.63;3.20;;;;;;;;;;4996785;28;20044;-76
2023/05/18 12:43:37;;;;;;;10.05;3.88;;;;;;;;;;4982899;28;20478;-76
2023/05/18 12:46:03;;;;;;;7.28;3.00;;;;;;;;;;4982644;28;20038;-76
2023/05/18 12:48:45;;;;;;;8.18;2.90;;;;;;;;;;4983934;28;20034;-76
2023/05/18 12:51:18;;;;;;;6.65;3.00;;;;;;;;;;4986686;28;20084;-76
2023/05/18 12:53:44;;;;;;;8.23;3.75;;;;;;;;;;4990204;28;20498;-76
2023/05/18 12:56:10;;;;;;;8.27;3.17;;;;;;;;;;4983386;28;20046;-76
2023/05/18 12:58:36;;;;;;;7.45;3.28;;;;;;;;;;4980363;28;20093;-75
2023/05/18 13:01:09;;;;;;;6.43;3.17;;;;;;;;;;4987657;28;20451;-75
2023/05/18 13:03:34;;;;;;;6.05;3.15;;;;;;;;;;4984354;28;20106;-76
2023/05/18 13:06:04;;;;;;;12.38;3.60;;;;;;;;;;4988596;28;20532;-75
2023/05/18 13:08:33;;;;;;;7.28;3.83;;;;;;;;;;4990294;28;20030;-75
2023/05/18 13:11:03;;;;;;;9.90;3.97;;;;;;;;;;4989440;28;20026;-75
2023/05/18 13:13:29;;;;;;;9.52;3.65;;;;;;;;;;4972386;28;20066;-75
2023/05/18 13:15:54;;;;;;;6.40;3.35;;;;;;;;;;4989398;28;20541;-74
2023/05/18 13:18:20;;;;;;;9.07;3.33;;;;;;;;;;4989079;28;20030;-75
2023/05/18 13:20:50;;;;;;;6.03;3.22;;;;;;;;;;4989874;28;20049;-75
2023/05/18 13:23:18;;;;;;;7.20;3.55;;;;;;;;;;4984802;28;20109;-76
2023/05/18 13:25:45;;;;;;;7.55;3.28;;;;;;;;;;4986317;28;20061;-76
2023/05/18 13:28:12;;;;;;;10.80;3.45;;;;;;;;;;4987375;28;20042;-75
2023/05/18 13:30:38;;;;;;;5.97;3.38;;;;;;;;;;4986608;28;20034;-75
2023/05/18 13:33:08;;;;;;;9.05;3.20;;;;;;;;;;4988416;28;20033;-75
2023/05/18 13:35:39;;;;;;;6.85;3.17;;;;;;;;;;4989113;28;20041;-76
2023/05/18 13:38:05;;;;;;;7.10;3.13;;;;;;;;;;4985783;28;20046;-76
2023/05/18 13:40:30;;;;;;;7.90;2.78;;;;;;;;;;4988839;28;20394;-75
2023/05/18 13:42:56;;;;;;;7.43;3.22;;;;;;;;;;4989528;28;20038;-76
2023/05/18 13:45:22;;;;;;;6.18;3.35;;;;;;;;;;4989353;28;20100;-76
2023/05/18 13:47:52;;;;;;;6.90;3.33;;;;;;;;;;4990471;28;20045;-76
2023/05/18 13:50:19;;;;;;;7.80;2.70;;;;;;;;;;4989492;28;20078;-76
2023/05/18 13:52:46;;;;;;;7.43;3.10;;;;;;;;;;4988544;28;20129;-76
2023/05/18 13:55:12;;;;;;;6.68;3.05;;;;;;;;;;4988339;28;20041;-76
2023/05/18 13:57:37;;;;;;;6.45;2.95;;;;;;;;;;4987685;28;20042;-76
2023/05/18 14:00:11;;;;;;;6.57;3.03;;;;;;;;;;4988892;28;20498;-76
2023/05/18 14:02:39;;;;;;;6.88;3.20;;;;;;;;;;4988244;28;20061;-76
2023/05/18 14:05:07;;;;;;;7.55;3.35;;;;;;;;;;4989523;28;20401;-75
2023/05/18 14:07:33;;;;;;;8.32;3.63;;;;;;;;;;4996218;28;20034;-76
2023/05/18 14:09:59;;;;;;;7.72;3.47;;;;;;;;;;4988007;28;20133;-76
2023/05/18 14:12:24;;;;;;;7.47;3.55;;;;;;;;;;4989232;28;20098;-76
2023/05/18 14:14:49;;;;;;;7.35;3.85;;;;;;;;;;4988707;28;20045;-76
2023/05/18 14:17:15;;;;;;;11.10;3.25;;;;;;;;;;4988366;28;20041;-76
2023/05/18 14:19:40;;;;;;;7.63;3.60;;;;;;;;;;4987211;28;20065;-75
2023/05/18 14:22:05;;;;;;;9.07;3.33;;;;;;;;;;4989761;28;20426;-76
2023/05/18 14:24:31;;;;;;;6.90;3.33;;;;;;;;;;4988871;28;20030;-75
2023/05/18 14:26:56;;;;;;;7.80;2.97;;;;;;;;;;4991643;28;20116;-76
2023/05/18 14:29:22;;;;;;;8.60;3.08;;;;;;;;;;4991945;28;20113;-75
2023/05/18 14:31:47;;;;;;;7.95;3.13;;;;;;;;;;4992516;28;20062;-75
2023/05/18 14:34:13;;;;;;;7.35;2.78;;;;;;;;;;4993437;28;20049;-76
2023/05/18 14:36:38;;;;;;;9.25;3.10;;;;;;;;;;4992744;28;20050;-75
2023/05/18 14:39:05;;;;;;;4.72;2.65;;;;;;;;;;4992252;28;20034;-75
2023/05/18 14:41:30;;;;;;;6.30;2.83;;;;;;;;;;4992539;28;20034;-75